createdAt,value
2018-01-30T00:00:28.926Z,102391.30
2018-01-30T00:02:54.902Z,102386.89
2018-01-30T00:05:20.852Z,102388.94
2018-01-30T00:07:46.805Z,102390.84
2018-01-30T00:10:12.754Z,102393.89
2018-01-30T00:12:38.720Z,102398.25
2018-01-30T00:15:04.664Z,102401.66
2018-01-30T00:17:30.695Z,102409.16
2018-01-30T00:19:56.639Z,102413.06
2018-01-30T00:22:22.581Z,102413.58
2018-01-30T00:24:48.540Z,102418.49
2018-01-30T00:27:14.501Z,102414.86
2018-01-30T00:29:40.438Z,102411.75
2018-01-30T00:32:06.401Z,102415.05
2018-01-30T00:34:32.341Z,102425.24
2018-01-30T00:36:58.297Z,102425.22
2018-01-30T00:39:24.361Z,102421.78
2018-01-30T00:41:50.306Z,102421.92
2018-01-30T00:44:16.256Z,102423.15
2018-01-30T00:46:42.235Z,102421.89
2018-01-30T00:49:08.172Z,102423.59
2018-01-30T00:51:34.121Z,102420.13
2018-01-30T00:54:00.090Z,102420.30
2018-01-30T00:56:26.185Z,102423.13
2018-01-30T00:58:52.141Z,102428.69
2018-01-30T01:01:18.096Z,102424.71
2018-01-30T01:03:44.040Z,102435.39
2018-01-30T01:06:10.019Z,102432.34
2018-01-30T01:08:35.961Z,102436.28
2018-01-30T01:11:01.914Z,102423.19
2018-01-30T01:13:27.860Z,102427.89
2018-01-30T01:15:53.920Z,102435.33
2018-01-30T01:18:19.861Z,102440.09
2018-01-30T01:20:45.904Z,102440.31
2018-01-30T01:23:11.840Z,102435.39
2018-01-30T01:25:37.804Z,102436.48
2018-01-30T01:28:03.768Z,102439.27
2018-01-30T01:30:29.716Z,102446.94
2018-01-30T01:32:55.713Z,102446.67
2018-01-30T01:35:21.673Z,102454.59
2018-01-30T01:37:47.634Z,102456.12
2018-01-30T01:40:13.664Z,102463.63
2018-01-30T01:42:39.601Z,102464.13
2018-01-30T01:45:05.565Z,102463.65
2018-01-30T01:47:31.749Z,102459.99
2018-01-30T01:49:57.697Z,102454.78
2018-01-30T01:52:23.637Z,102455.88
2018-01-30T01:54:49.604Z,102457.41
2018-01-30T01:57:15.564Z,102453.06
2018-01-30T01:59:41.520Z,102453.60
2018-01-30T02:02:07.473Z,102448.47
2018-01-30T02:04:33.413Z,102441.34
2018-01-30T02:06:59.365Z,102442.03
2018-01-30T02:09:25.325Z,102437.41
2018-01-30T02:11:51.388Z,102438.52
2018-01-30T02:14:17.412Z,102436.94
2018-01-30T02:16:43.435Z,102437.27
2018-01-30T02:19:09.409Z,102437.27
2018-01-30T02:21:35.350Z,102438.64
2018-01-30T02:24:01.317Z,102430.25
2018-01-30T02:26:27.348Z,102427.61
2018-01-30T02:28:53.313Z,102431.39
2018-01-30T02:31:19.261Z,102422.69
2018-01-30T02:33:45.213Z,102431.36
2018-01-30T02:36:11.173Z,102431.18
2018-01-30T02:38:37.125Z,102426.23
2018-01-30T02:41:03.069Z,102429.08
2018-01-30T02:43:29.012Z,102422.91
2018-01-30T02:45:54.969Z,102425.86
2018-01-30T02:48:21.011Z,102420.12
2018-01-30T02:50:46.950Z,102419.91
2018-01-30T02:53:12.909Z,102418.14
2018-01-30T02:55:38.857Z,102419.84
2018-01-30T02:58:04.801Z,102411.06
2018-01-30T03:00:30.769Z,102408.00
2018-01-30T03:02:56.712Z,102413.25
2018-01-30T03:05:22.677Z,102412.29
2018-01-30T03:07:48.631Z,102416.67
2018-01-30T03:10:14.576Z,102413.83
2018-01-30T03:12:40.572Z,102419.70
2018-01-30T03:15:06.520Z,102414.78
2018-01-30T03:17:32.459Z,102414.78
2018-01-30T03:19:58.416Z,102414.34
2018-01-30T03:22:24.360Z,102418.38
2018-01-30T03:24:50.309Z,102418.05
2018-01-30T03:27:16.266Z,102420.69
2018-01-30T03:29:42.236Z,102418.27
2018-01-30T03:32:08.181Z,102419.22
2018-01-30T03:34:34.121Z,102417.63
2018-01-30T03:37:00.070Z,102417.98
2018-01-30T03:39:26.012Z,102416.88
2018-01-30T03:41:52.190Z,102416.41
2018-01-30T03:44:18.134Z,102420.89
2018-01-30T03:46:44.097Z,102422.75
2018-01-30T03:49:10.045Z,102426.36
2018-01-30T03:51:35.985Z,102427.88
2018-01-30T03:54:01.916Z,102432.34
2018-01-30T03:56:27.965Z,102431.02
2018-01-30T03:58:53.958Z,102439.30
2018-01-30T04:01:19.893Z,102433.40
2018-01-30T04:03:45.832Z,102435.62
2018-01-30T04:06:11.845Z,102439.80
2018-01-30T04:08:37.801Z,102442.98
2018-01-30T04:11:04.250Z,102451.69
2018-01-30T04:13:30.193Z,102450.30
2018-01-30T04:15:56.146Z,102455.43
2018-01-30T04:18:22.083Z,102457.55
2018-01-30T04:20:48.020Z,102458.81
2018-01-30T04:23:13.961Z,102459.09
2018-01-30T04:25:39.904Z,102458.34
2018-01-30T04:28:05.867Z,102457.02
2018-01-30T04:30:31.929Z,102458.67
2018-01-30T04:32:57.881Z,102453.17
2018-01-30T04:35:23.829Z,102458.92
2018-01-30T04:37:49.780Z,102454.38
2018-01-30T04:40:15.741Z,102455.31
2018-01-30T04:42:41.696Z,102460.50
2018-01-30T04:45:07.690Z,102461.39
2018-01-30T04:47:33.628Z,102454.43
2018-01-30T04:49:59.692Z,102457.97
2018-01-30T04:52:25.710Z,102451.09
2018-01-30T04:54:51.652Z,102454.17
2018-01-30T04:57:17.590Z,102456.27
2018-01-30T04:59:43.532Z,102452.89
2018-01-30T05:02:09.504Z,102449.27
2018-01-30T05:04:35.470Z,102446.73
2018-01-30T05:07:01.506Z,102448.14
2018-01-30T05:09:27.448Z,102457.48
2018-01-30T05:11:53.429Z,102445.70
2018-01-30T05:14:19.397Z,102445.50
2018-01-30T05:16:45.340Z,102443.23
2018-01-30T05:19:11.305Z,102435.58
2018-01-30T05:21:37.365Z,102439.16
2018-01-30T05:24:03.328Z,102447.98
2018-01-30T05:26:29.293Z,102443.96
2018-01-30T05:28:55.252Z,102440.91
2018-01-30T05:31:21.257Z,102439.95
2018-01-30T05:33:47.203Z,102436.48
2018-01-30T05:36:13.165Z,102440.89
2018-01-30T05:38:39.109Z,102440.31
2018-01-30T05:41:05.053Z,102453.58
2018-01-30T05:43:30.996Z,102457.86
2018-01-30T05:45:56.941Z,102455.64
2018-01-30T05:48:22.904Z,102468.76
2018-01-30T05:50:48.845Z,102469.09
2018-01-30T05:53:14.797Z,102474.50
2018-01-30T05:55:40.824Z,102475.34
2018-01-30T05:58:06.730Z,102485.36
2018-01-30T06:00:32.676Z,102483.80
2018-01-30T06:02:58.657Z,102486.76
2018-01-30T06:05:24.586Z,102484.52
2018-01-30T06:07:50.533Z,102493.55
2018-01-30T06:10:16.483Z,102490.13
2018-01-30T06:12:42.420Z,102501.47
2018-01-30T06:15:08.385Z,102494.30
2018-01-30T06:17:34.328Z,102491.48
2018-01-30T06:20:00.306Z,102487.88
2018-01-30T06:22:26.249Z,102483.92
2018-01-30T06:24:52.293Z,102464.76
2018-01-30T06:27:18.234Z,102456.99
2018-01-30T06:29:44.185Z,102457.02
2018-01-30T06:32:10.128Z,102457.48
2018-01-30T06:34:36.077Z,102459.91
2018-01-30T06:37:02.021Z,102463.66
2018-01-30T06:39:27.964Z,102459.77
2018-01-30T06:41:53.961Z,102460.59
2018-01-30T06:44:19.881Z,102468.42
2018-01-30T06:46:45.882Z,102475.36
2018-01-30T06:49:11.812Z,102480.47
2018-01-30T06:51:37.753Z,102476.34
2018-01-30T06:54:03.692Z,102473.92
2018-01-30T06:56:29.717Z,102479.82
2018-01-30T06:58:55.681Z,102472.70
2018-01-30T07:01:21.627Z,102464.67
2018-01-30T07:03:47.565Z,102475.70
2018-01-30T07:06:13.509Z,102476.06
2018-01-30T07:08:39.451Z,102489.17
2018-01-30T07:11:05.396Z,102493.94
2018-01-30T07:13:31.373Z,102485.20
2018-01-30T07:15:57.320Z,102490.65
2018-01-30T07:18:23.260Z,102495.45
2018-01-30T07:20:49.252Z,102496.14
2018-01-30T07:23:15.225Z,102491.95
2018-01-30T07:25:41.172Z,102497.19
2018-01-30T07:28:07.142Z,102492.34
2018-01-30T07:30:33.089Z,102498.45
2018-01-30T07:32:59.145Z,102500.05
2018-01-30T07:35:25.085Z,102506.81
2018-01-30T07:37:51.039Z,102512.09
2018-01-30T07:40:16.977Z,102512.55
2018-01-30T07:42:42.941Z,102509.66
2018-01-30T07:45:08.881Z,102513.41
2018-01-30T07:47:34.837Z,102513.78
2018-01-30T07:50:00.793Z,102507.37
2018-01-30T07:52:26.737Z,102517.92
2018-01-30T07:54:52.718Z,102514.89
2018-01-30T07:57:18.705Z,102515.58
2018-01-30T07:59:44.744Z,102505.92
2018-01-30T08:02:10.757Z,102506.91
2018-01-30T08:04:36.717Z,102509.34
2018-01-30T08:07:02.664Z,102506.81
2018-01-30T08:09:28.616Z,102502.38
2018-01-30T08:11:54.568Z,102509.38
2018-01-30T08:14:20.600Z,102505.50
2018-01-30T08:16:46.625Z,102512.61
2018-01-30T08:19:12.710Z,102510.72
2018-01-30T08:21:38.684Z,102515.20
2018-01-30T08:24:04.629Z,102515.52
2018-01-30T08:26:30.729Z,102506.93
2018-01-30T08:28:56.665Z,102509.19
2018-01-30T08:31:22.637Z,102503.94
2018-01-30T08:33:48.605Z,102500.70
2018-01-30T08:36:14.561Z,102505.50
2018-01-30T08:38:40.557Z,102508.59
2018-01-30T08:41:06.502Z,102500.52
2018-01-30T08:43:32.465Z,102508.89
2018-01-30T08:45:58.417Z,102514.29
2018-01-30T08:48:24.384Z,102503.73
2018-01-30T08:50:50.337Z,102505.70
2018-01-30T08:53:16.282Z,102503.73
2018-01-30T08:55:42.353Z,102506.97
2018-01-30T08:58:08.300Z,102502.62
2018-01-30T09:00:34.341Z,102509.40
2018-01-30T09:03:00.296Z,102502.67
2018-01-30T09:05:26.235Z,102509.93
2018-01-30T09:07:52.177Z,102511.84
2018-01-30T09:10:18.137Z,102502.22
2018-01-30T09:12:44.100Z,102507.16
2018-01-30T09:15:10.105Z,102501.91
2018-01-30T09:17:36.037Z,102501.92
2018-01-30T09:20:01.998Z,102503.31
2018-01-30T09:22:27.941Z,102501.02
2018-01-30T09:24:53.913Z,102506.33
2018-01-30T09:27:19.861Z,102503.55
2018-01-30T09:29:45.877Z,102506.88
2018-01-30T09:32:11.837Z,102508.88
2018-01-30T09:34:37.873Z,102505.64
2018-01-30T09:37:03.825Z,102513.05
2018-01-30T09:39:29.777Z,102497.98
2018-01-30T09:41:55.717Z,102505.01
2018-01-30T09:44:21.665Z,102507.44
2018-01-30T09:46:47.610Z,102511.78
2018-01-30T09:49:13.673Z,102512.95
2018-01-30T09:51:39.617Z,102514.73
2018-01-30T09:54:05.568Z,102517.05
2018-01-30T09:56:31.567Z,102519.29
2018-01-30T09:58:57.519Z,102513.00
2018-01-30T10:01:23.490Z,102516.11
2018-01-30T10:03:49.425Z,102510.78
2018-01-30T10:06:15.417Z,102508.81
2018-01-30T10:08:41.372Z,102510.41
2018-01-30T10:11:07.318Z,102510.41
2018-01-30T10:13:33.257Z,102511.94
2018-01-30T10:15:59.201Z,102505.88
2018-01-30T10:18:25.152Z,102515.04
2018-01-30T10:20:51.089Z,102512.66
2018-01-30T10:23:17.037Z,102508.45
2018-01-30T10:25:42.984Z,102502.97
2018-01-30T10:28:08.921Z,102500.52
2018-01-30T10:30:34.873Z,102499.10
2018-01-30T10:33:00.868Z,102494.03
2018-01-30T10:35:26.810Z,102490.02
2018-01-30T10:37:52.758Z,102486.89
2018-01-30T10:40:18.752Z,102480.05
2018-01-30T10:42:44.749Z,102483.59
2018-01-30T10:45:10.692Z,102480.95
2018-01-30T10:47:36.646Z,102478.91
2018-01-30T10:50:02.595Z,102480.09
2018-01-30T10:52:28.553Z,102477.14
2018-01-30T10:54:54.494Z,102473.48
2018-01-30T10:57:20.475Z,102476.80
2018-01-30T10:59:46.540Z,102465.62
2018-01-30T11:02:12.499Z,102459.95
2018-01-30T11:04:38.440Z,102454.73
2018-01-30T11:07:04.392Z,102450.87
2018-01-30T11:09:30.359Z,102445.06
2018-01-30T11:11:56.338Z,102449.68
2018-01-30T11:14:22.303Z,102437.58
2018-01-30T11:16:48.248Z,102436.94
2018-01-30T11:19:14.265Z,102434.10
2018-01-30T11:21:40.218Z,102430.59
2018-01-30T11:24:06.181Z,102425.53
2018-01-30T11:26:32.144Z,102421.62
2018-01-30T11:28:58.093Z,102419.34
2018-01-30T11:31:24.062Z,102414.92
2018-01-30T11:33:50.005Z,102421.16
2018-01-30T11:36:15.985Z,102419.67
2018-01-30T11:38:41.934Z,102409.59
2018-01-30T11:41:07.897Z,102412.33
2018-01-30T11:43:33.856Z,102410.85
2018-01-30T11:45:59.834Z,102414.22
2018-01-30T11:48:25.832Z,102411.95
2018-01-30T11:50:51.789Z,102409.73
2018-01-30T11:53:17.744Z,102411.02
2018-01-30T11:55:43.698Z,102409.64
2018-01-30T11:58:09.652Z,102412.87
2018-01-30T12:00:35.601Z,102407.30
2018-01-30T12:03:01.574Z,102407.12
2018-01-30T12:05:27.522Z,102404.00
2018-01-30T12:07:53.485Z,102405.91
2018-01-30T12:10:19.476Z,102401.30
2018-01-30T12:12:45.413Z,102400.45
2018-01-30T12:15:11.424Z,102397.23
2018-01-30T12:17:37.394Z,102395.37
2018-01-30T12:20:03.358Z,102401.76
2018-01-30T12:22:29.301Z,102403.30
2018-01-30T12:24:55.246Z,102399.41
2018-01-30T12:27:21.276Z,102399.86
2018-01-30T12:29:47.246Z,102400.34
2018-01-30T12:32:13.197Z,102397.34
2018-01-30T12:34:39.152Z,102396.11
2018-01-30T12:37:05.117Z,102389.99
2018-01-30T12:39:31.076Z,102389.03
2018-01-30T12:41:57.050Z,102378.43
2018-01-30T12:44:23.065Z,102376.69
2018-01-30T12:46:49.009Z,102367.38
2018-01-30T12:49:15.017Z,102366.55
2018-01-30T12:51:40.984Z,102360.42
2018-01-30T12:54:06.975Z,102351.28
2018-01-30T12:56:32.892Z,102349.90
2018-01-30T12:58:58.836Z,102342.41
2018-01-30T13:01:24.782Z,102333.50
2018-01-30T13:03:50.774Z,102325.19
2018-01-30T13:06:16.732Z,102329.13
2018-01-30T13:08:42.747Z,102327.09
2018-01-30T13:11:08.773Z,102326.25
2018-01-30T13:13:34.741Z,102321.59
2018-01-30T13:16:00.854Z,102317.69
2018-01-30T13:18:26.873Z,102318.81
2018-01-30T13:20:52.823Z,102316.53
2018-01-30T13:23:18.812Z,102308.61
2018-01-30T13:25:44.832Z,102301.91
2018-01-30T13:28:10.801Z,102307.93
2018-01-30T13:30:36.757Z,102295.41
2018-01-30T13:33:02.734Z,102295.63
2018-01-30T13:35:28.705Z,102278.79
2018-01-30T13:37:54.659Z,102281.84
2018-01-30T13:40:20.785Z,102274.19
2018-01-30T13:42:46.730Z,102271.64
2018-01-30T13:45:12.682Z,102266.62
2018-01-30T13:47:38.629Z,102264.23
2018-01-30T13:50:04.585Z,102263.20
2018-01-30T13:52:30.537Z,102255.06
2018-01-30T13:54:56.478Z,102244.55
2018-01-30T13:57:22.421Z,102241.22
2018-01-30T13:59:48.400Z,102241.72
2018-01-30T14:02:14.381Z,102242.86
2018-01-30T14:04:40.334Z,102237.09
2018-01-30T14:07:06.281Z,102234.12
2018-01-30T14:09:32.217Z,102233.02
2018-01-30T14:11:58.152Z,102231.89
2018-01-30T14:14:24.097Z,102232.19
2018-01-30T14:16:50.120Z,102232.70
2018-01-30T14:19:16.142Z,102224.84
2018-01-30T14:21:42.165Z,102222.14
2018-01-30T14:24:08.205Z,102220.72
2018-01-30T14:26:34.149Z,102213.54
2018-01-30T14:29:00.114Z,102215.95
2018-01-30T14:31:26.074Z,102207.59
2018-01-30T14:33:52.117Z,102207.45
2018-01-30T14:36:18.056Z,102200.03
2018-01-30T14:38:44.069Z,102200.77
2018-01-30T14:41:10.000Z,102201.92
2018-01-30T14:43:35.953Z,102198.88
2018-01-30T14:46:01.957Z,102196.84
2018-01-30T14:48:27.904Z,102195.20
2018-01-30T14:50:53.866Z,102188.29
2018-01-30T14:53:19.818Z,102184.06
2018-01-30T14:55:45.762Z,102182.09
2018-01-30T14:58:11.732Z,102182.19
2018-01-30T15:00:37.729Z,102178.88
2018-01-30T15:03:03.693Z,102170.21
2018-01-30T15:05:29.634Z,102165.94
2018-01-30T15:07:55.649Z,102157.03
2018-01-30T15:10:21.612Z,102151.59
2018-01-30T15:12:47.561Z,102152.08
2018-01-30T15:15:13.584Z,102146.62
2018-01-30T15:17:39.530Z,102151.92
2018-01-30T15:20:05.497Z,102145.87
2018-01-30T15:22:31.609Z,102142.74
2018-01-30T15:24:57.557Z,102135.89
2018-01-30T15:27:23.510Z,102139.47
2018-01-30T15:29:49.561Z,102130.02
2018-01-30T15:32:15.510Z,102135.82
2018-01-30T15:34:41.477Z,102137.77
2018-01-30T15:37:07.449Z,102136.88
2018-01-30T15:39:33.469Z,102131.25
2018-01-30T15:41:59.404Z,102127.99
2018-01-30T15:44:25.364Z,102126.93
2018-01-30T15:46:51.321Z,102127.98
2018-01-30T15:49:17.277Z,102120.08
2018-01-30T15:51:43.227Z,102122.88
2018-01-30T15:54:09.209Z,102121.36
2018-01-30T15:56:35.169Z,102119.71
2018-01-30T15:59:01.169Z,102112.44
2018-01-30T16:01:27.128Z,102107.62
2018-01-30T16:03:53.086Z,102103.11
2018-01-30T16:06:19.057Z,102108.52
2018-01-30T16:08:45.004Z,102111.28
2018-01-30T16:11:10.966Z,102106.94
2018-01-30T16:13:36.929Z,102102.00
2018-01-30T16:16:02.859Z,102099.33
2018-01-30T16:18:28.826Z,102097.52
2018-01-30T16:20:54.840Z,102097.09
2018-01-30T16:23:20.866Z,102089.62
2018-01-30T16:25:46.821Z,102079.27
2018-01-30T16:28:12.773Z,102073.34
2018-01-30T16:30:38.805Z,102070.55
2018-01-30T16:33:04.755Z,102066.76
2018-01-30T16:35:30.706Z,102064.02
2018-01-30T16:37:56.732Z,102057.70
2018-01-30T16:40:22.674Z,102056.27
2018-01-30T16:42:48.633Z,102051.19
2018-01-30T16:45:14.631Z,102045.59
2018-01-30T16:47:40.656Z,102038.27
2018-01-30T16:50:06.674Z,102034.71
2018-01-30T16:52:32.613Z,102032.80
2018-01-30T16:54:58.553Z,102028.53
2018-01-30T16:57:24.516Z,102025.61
2018-01-30T16:59:50.481Z,102022.58
2018-01-30T17:02:16.464Z,102018.27
2018-01-30T17:04:42.420Z,102013.69
2018-01-30T17:07:08.482Z,102013.02
2018-01-30T17:09:34.613Z,102000.20
2018-01-30T17:12:00.549Z,102004.52
2018-01-30T17:14:26.517Z,102005.55
2018-01-30T17:16:52.464Z,102001.94
2018-01-30T17:19:18.414Z,102002.08
2018-01-30T17:21:44.441Z,101997.31
2018-01-30T17:24:10.392Z,101995.13
2018-01-30T17:26:36.333Z,102002.05
2018-01-30T17:29:02.350Z,101997.91
2018-01-30T17:31:28.305Z,101999.30
2018-01-30T17:33:54.273Z,101995.34
2018-01-30T17:36:20.313Z,101988.05
2018-01-30T17:38:46.563Z,101988.67
2018-01-30T17:41:12.520Z,101985.61
2018-01-30T17:43:38.480Z,101986.97
2018-01-30T17:46:04.521Z,101977.06
2018-01-30T17:48:30.479Z,101968.72
2018-01-30T17:50:56.484Z,101966.98
2018-01-30T17:53:22.453Z,101962.19
2018-01-30T17:55:48.390Z,101962.67
2018-01-30T17:58:14.465Z,101960.70
2018-01-30T18:00:40.414Z,101960.45
2018-01-30T18:03:06.429Z,101954.45
2018-01-30T18:05:32.389Z,101941.06
2018-01-30T18:07:58.349Z,101937.77
2018-01-30T18:10:24.298Z,101941.66
2018-01-30T18:12:50.245Z,101932.77
2018-01-30T18:15:16.275Z,101932.84
2018-01-30T18:17:42.226Z,101927.38
2018-01-30T18:20:08.196Z,101921.27
2018-01-30T18:22:34.239Z,101923.04
2018-01-30T18:25:00.419Z,101911.40
2018-01-30T18:27:26.414Z,101917.65
2018-01-30T18:29:52.383Z,101919.11
2018-01-30T18:32:18.329Z,101896.83
2018-01-30T18:34:44.297Z,101901.56
2018-01-30T18:37:10.314Z,101895.31
2018-01-30T18:39:36.289Z,101895.56
2018-01-30T18:42:02.300Z,101882.55
2018-01-30T18:44:28.237Z,101883.09
2018-01-30T18:46:54.208Z,101885.45
2018-01-30T18:49:20.162Z,101879.58
2018-01-30T18:51:46.155Z,101876.38
2018-01-30T18:54:12.215Z,101874.09
2018-01-30T18:56:38.166Z,101876.51
2018-01-30T18:59:04.138Z,101877.76
2018-01-30T19:01:30.093Z,101871.89
2018-01-30T19:03:56.125Z,101872.20
2018-01-30T19:06:22.166Z,101867.75
2018-01-30T19:08:48.109Z,101867.28
2018-01-30T19:11:14.072Z,101868.44
2018-01-30T19:13:40.033Z,101873.98
2018-01-30T19:16:06.001Z,101868.16
2018-01-30T19:18:31.949Z,101857.35
2018-01-30T19:20:57.892Z,101852.91
2018-01-30T19:23:23.864Z,101850.68
2018-01-30T19:25:49.812Z,101837.23
2018-01-30T19:28:15.749Z,101835.58
2018-01-30T19:30:41.714Z,101828.91
2018-01-30T19:33:07.675Z,101823.51
2018-01-30T19:35:33.654Z,101820.74
2018-01-30T19:37:59.614Z,101830.69
2018-01-30T19:40:25.582Z,101824.34
2018-01-30T19:42:51.526Z,101815.77
2018-01-30T19:45:17.489Z,101805.09
2018-01-30T19:47:43.496Z,101810.90
2018-01-30T19:50:09.453Z,101802.63
2018-01-30T19:52:35.465Z,101794.47
2018-01-30T19:55:01.423Z,101790.97
2018-01-30T19:57:27.377Z,101791.53
2018-01-30T19:59:53.464Z,101780.78
2018-01-30T20:02:19.424Z,101779.27
2018-01-30T20:04:45.382Z,101778.26
2018-01-30T20:07:11.343Z,101772.22
2018-01-30T20:09:37.287Z,101764.58
2018-01-30T20:12:03.230Z,101762.84
2018-01-30T20:14:29.194Z,101768.61
2018-01-30T20:16:55.146Z,101766.52
2018-01-30T20:19:21.138Z,101783.89
2018-01-30T20:21:47.109Z,101772.92
2018-01-30T20:24:13.052Z,101763.80
2018-01-30T20:26:39.050Z,101759.63
2018-01-30T20:29:05.010Z,101753.72
2018-01-30T20:31:30.962Z,101753.61
2018-01-30T20:33:56.932Z,101746.94
2018-01-30T20:36:22.890Z,101751.98
2018-01-30T20:38:48.841Z,101753.02
2018-01-30T20:41:14.781Z,101749.59
2018-01-30T20:43:40.749Z,101745.14
2018-01-30T20:46:06.718Z,101736.03
2018-01-30T20:48:32.872Z,101742.94
2018-01-30T20:50:58.822Z,101733.05
2018-01-30T20:53:24.793Z,101734.17
2018-01-30T20:55:50.821Z,101728.11
2018-01-30T20:58:16.773Z,101724.03
2018-01-30T21:00:42.853Z,101714.55
2018-01-30T21:03:08.861Z,101712.06
2018-01-30T21:05:34.828Z,101708.03
2018-01-30T21:08:00.776Z,101690.87
2018-01-30T21:10:26.733Z,101694.45
2018-01-30T21:12:52.689Z,101701.37
2018-01-30T21:15:18.647Z,101695.68
2018-01-30T21:17:44.635Z,101688.34
2018-01-30T21:20:10.624Z,101686.27
2018-01-30T21:22:36.581Z,101676.70
2018-01-30T21:25:02.585Z,101669.45
2018-01-30T21:27:28.564Z,101669.29
2018-01-30T21:29:54.504Z,101664.66
2018-01-30T21:32:20.513Z,101667.84
2018-01-30T21:34:46.509Z,101661.31
2018-01-30T21:37:12.457Z,101658.30
2018-01-30T21:39:38.420Z,101657.52
2018-01-30T21:42:04.374Z,101657.40
2018-01-30T21:44:30.337Z,101655.27
2018-01-30T21:46:56.382Z,101644.66
2018-01-30T21:49:22.323Z,101627.25
2018-01-30T21:51:48.328Z,101628.38
2018-01-30T21:54:18.413Z,101634.61
2018-01-30T21:56:40.246Z,101636.78
2018-01-30T21:59:06.195Z,101634.56
2018-01-30T22:01:32.134Z,101629.45
2018-01-30T22:03:58.106Z,101623.87
2018-01-30T22:06:24.089Z,101612.52
2018-01-30T22:08:50.054Z,101612.57
2018-01-30T22:11:16.014Z,101603.39
2018-01-30T22:13:41.965Z,101598.28
2018-01-30T22:16:08.005Z,101592.22
2018-01-30T22:18:33.969Z,101594.92
2018-01-30T22:20:59.918Z,101578.19
2018-01-30T22:23:25.985Z,101572.15
2018-01-30T22:25:51.950Z,101563.39
2018-01-30T22:28:17.955Z,101569.73
2018-01-30T22:30:43.989Z,101562.00
2018-01-30T22:33:09.933Z,101551.70
2018-01-30T22:35:35.872Z,101546.24
2018-01-30T22:38:01.867Z,101544.73
2018-01-30T22:40:27.800Z,101539.83
2018-01-30T22:42:53.736Z,101532.67
2018-01-30T22:45:19.708Z,101526.91
